AFL024 UUEE-ULLI
Flight info
| Callsign | AFL024 |
|---|---|
| Flight time | 1h 1m |
| Altitude | 32000 |
| Route | TOKNU3H TOKNU L4 NUDKO T561 ODATI T875 GENPA GENPA1V |
| Aircraft | A320/M-SDE3FGHIRWY/LB1 |
Departure
| Time | 2026-05-05 12:17 |
|---|---|
| Airport | Sheremetyevo International Airport (UUEE) |
Arrival
| Time | 2026-05-05 13:18 |
|---|---|
| Airport | Pulkovo Airport (ULLI) |
| Time | Latitude | Longitude | Altitude | Speed | Heading |
|---|---|---|---|---|---|
| 2026-05-05 11:44 | 55.97879 | 37.41913 | 637 ft | 0 kts | 255° |
| 2026-05-05 12:05 | 55.97881 | 37.41921 | 637 ft | 2 kts | 262° |
| 2026-05-05 12:05 | 55.97883 | 37.41947 | 637 ft | 2 kts | 252° |
| 2026-05-05 12:06 | 55.97887 | 37.41972 | 637 ft | 2 kts | 256° |
| 2026-05-05 12:06 | 55.97891 | 37.41997 | 637 ft | 0 kts | 254° |
| 2026-05-05 12:06 | 55.97894 | 37.42015 | 637 ft | 2 kts | 229° |
| 2026-05-05 12:06 | 55.97906 | 37.42030 | 637 ft | 2 kts | 192° |
| 2026-05-05 12:07 | 55.97916 | 37.42031 | 637 ft | 0 kts | 168° |
| 2026-05-05 12:07 | 55.97923 | 37.42027 | 637 ft | 0 kts | 165° |
| 2026-05-05 12:11 | 55.97919 | 37.42029 | 637 ft | 1 kts | 165° |
| 2026-05-05 12:11 | 55.97900 | 37.42038 | 637 ft | 4 kts | 166° |
| 2026-05-05 12:11 | 55.97866 | 37.42052 | 637 ft | 5 kts | 166° |
| 2026-05-05 12:12 | 55.97819 | 37.42073 | 637 ft | 7 kts | 164° |
| 2026-05-05 12:12 | 55.97766 | 37.42100 | 637 ft | 8 kts | 164° |
| 2026-05-05 12:12 | 55.97709 | 37.42137 | 637 ft | 9 kts | 143° |
| 2026-05-05 12:12 | 55.97695 | 37.42250 | 637 ft | 10 kts | 77° |
| 2026-05-05 12:13 | 55.97715 | 37.42388 | 637 ft | 12 kts | 75° |
| 2026-05-05 12:13 | 55.97738 | 37.42542 | 637 ft | 13 kts | 74° |
| 2026-05-05 12:13 | 55.97758 | 37.42680 | 637 ft | 7 kts | 75° |
| 2026-05-05 12:13 | 55.97751 | 37.42767 | 637 ft | 8 kts | 130° |
| 2026-05-05 12:14 | 55.97732 | 37.42791 | 637 ft | 0 kts | 159° |
| 2026-05-05 12:14 | 55.97731 | 37.42791 | 637 ft | 0 kts | 159° |
| 2026-05-05 12:15 | 55.97722 | 37.42798 | 637 ft | 2 kts | 161° |
| 2026-05-05 12:15 | 55.97704 | 37.42807 | 637 ft | 3 kts | 163° |
| 2026-05-05 12:15 | 55.97676 | 37.42821 | 637 ft | 4 kts | 166° |
| 2026-05-05 12:15 | 55.97642 | 37.42829 | 637 ft | 5 kts | 184° |
| 2026-05-05 12:16 | 55.97610 | 37.42797 | 637 ft | 5 kts | 230° |
| 2026-05-05 12:16 | 55.97580 | 37.42659 | 637 ft | 32 kts | 253° |
| 2026-05-05 12:16 | 55.97459 | 37.41859 | 637 ft | 99 kts | 255° |
| 2026-05-05 12:16 | 55.97232 | 37.40325 | 680 ft | 148 kts | 256° |
| 2026-05-05 12:17 | 55.96976 | 37.38524 | 1227 ft | 151 kts | 257° |
| 2026-05-05 12:17 | 55.96715 | 37.36755 | 1910 ft | 150 kts | 257° |
| 2026-05-05 12:17 | 55.96450 | 37.34990 | 2555 ft | 152 kts | 255° |
| 2026-05-05 12:17 | 55.96099 | 37.33148 | 3012 ft | 165 kts | 252° |
| 2026-05-05 12:18 | 55.95716 | 37.31111 | 3437 ft | 182 kts | 253° |
| 2026-05-05 12:18 | 55.95321 | 37.28837 | 3812 ft | 204 kts | 254° |
| 2026-05-05 12:18 | 55.94905 | 37.26297 | 4297 ft | 223 kts | 254° |
| 2026-05-05 12:18 | 55.94475 | 37.23570 | 4799 ft | 240 kts | 254° |
| 2026-05-05 12:19 | 55.94016 | 37.20598 | 5382 ft | 255 kts | 254° |
| 2026-05-05 12:19 | 55.93551 | 37.17561 | 6191 ft | 258 kts | 254° |
| 2026-05-05 12:19 | 55.93079 | 37.14476 | 7058 ft | 260 kts | 254° |
| 2026-05-05 12:19 | 55.92612 | 37.11430 | 7903 ft | 262 kts | 254° |
| 2026-05-05 12:20 | 55.92134 | 37.08300 | 8709 ft | 265 kts | 255° |
| 2026-05-05 12:20 | 55.91672 | 37.05130 | 9499 ft | 267 kts | 260° |
| 2026-05-05 12:20 | 55.91744 | 37.01856 | 10221 ft | 273 kts | 285° |
| 2026-05-05 12:20 | 55.92637 | 36.98891 | 11015 ft | 280 kts | 308° |
| 2026-05-05 12:21 | 55.94151 | 36.96661 | 11813 ft | 287 kts | 321° |
| 2026-05-05 12:21 | 55.95800 | 36.94645 | 12566 ft | 290 kts | 321° |
| 2026-05-05 12:21 | 55.97449 | 36.92626 | 13264 ft | 293 kts | 321° |
| 2026-05-05 12:21 | 55.99185 | 36.90737 | 13957 ft | 298 kts | 327° |
| 2026-05-05 12:22 | 56.01115 | 36.89188 | 14547 ft | 309 kts | 334° |
| 2026-05-05 12:22 | 56.03179 | 36.87892 | 14839 ft | 325 kts | 336° |
| 2026-05-05 12:22 | 56.05336 | 36.86623 | 15296 ft | 334 kts | 336° |
| 2026-05-05 12:22 | 56.07520 | 36.85182 | 15918 ft | 333 kts | 329° |
| 2026-05-05 12:23 | 56.09472 | 36.83109 | 16549 ft | 330 kts | 319° |
| 2026-05-05 12:23 | 56.11209 | 36.80476 | 17169 ft | 329 kts | 313° |
| 2026-05-05 12:23 | 56.12877 | 36.77684 | 17764 ft | 331 kts | 312° |
| 2026-05-05 12:23 | 56.14562 | 36.74833 | 18335 ft | 334 kts | 312° |
| 2026-05-05 12:24 | 56.16246 | 36.71988 | 18905 ft | 336 kts | 312° |
| 2026-05-05 12:24 | 56.17930 | 36.69152 | 19466 ft | 338 kts | 312° |
| 2026-05-05 12:24 | 56.19666 | 36.66231 | 20021 ft | 341 kts | 312° |
| 2026-05-05 12:24 | 56.21378 | 36.63352 | 20559 ft | 343 kts | 312° |
| 2026-05-05 12:25 | 56.23115 | 36.60426 | 21065 ft | 346 kts | 312° |
| 2026-05-05 12:25 | 56.24871 | 36.57464 | 21512 ft | 350 kts | 312° |
| 2026-05-05 12:25 | 56.26642 | 36.54472 | 22023 ft | 352 kts | 312° |
| 2026-05-05 12:25 | 56.28418 | 36.51471 | 22541 ft | 353 kts | 312° |
| 2026-05-05 12:26 | 56.30198 | 36.48455 | 23046 ft | 355 kts | 311° |
| 2026-05-05 12:26 | 56.32010 | 36.45383 | 23530 ft | 357 kts | 311° |
| 2026-05-05 12:26 | 56.33799 | 36.42335 | 24006 ft | 358 kts | 310° |
| 2026-05-05 12:26 | 56.35420 | 36.38960 | 24463 ft | 355 kts | 301° |
| 2026-05-05 12:27 | 56.36701 | 36.35223 | 24931 ft | 352 kts | 294° |
| 2026-05-05 12:27 | 56.37681 | 36.31177 | 25385 ft | 352 kts | 288° |
| 2026-05-05 12:27 | 56.38556 | 36.27107 | 25817 ft | 354 kts | 288° |
| 2026-05-05 12:27 | 56.39442 | 36.22918 | 26243 ft | 356 kts | 288° |
| 2026-05-05 12:28 | 56.40318 | 36.18763 | 26648 ft | 358 kts | 287° |
| 2026-05-05 12:28 | 56.41198 | 36.14590 | 27033 ft | 360 kts | 288° |
| 2026-05-05 12:28 | 56.42088 | 36.10361 | 27404 ft | 362 kts | 288° |
| 2026-05-05 12:28 | 56.42974 | 36.06146 | 27770 ft | 364 kts | 288° |
| 2026-05-05 12:29 | 56.43897 | 36.01899 | 28144 ft | 366 kts | 290° |
| 2026-05-05 12:29 | 56.45023 | 35.97741 | 28509 ft | 370 kts | 295° |
| 2026-05-05 12:29 | 56.46359 | 35.93788 | 28845 ft | 374 kts | 300° |
| 2026-05-05 12:29 | 56.47909 | 35.90017 | 29169 ft | 378 kts | 304° |
| 2026-05-05 12:30 | 56.49580 | 35.86336 | 29495 ft | 380 kts | 304° |
| 2026-05-05 12:30 | 56.51265 | 35.82674 | 29808 ft | 382 kts | 304° |
| 2026-05-05 12:30 | 56.52960 | 35.78995 | 30119 ft | 383 kts | 304° |
| 2026-05-05 12:30 | 56.54681 | 35.75254 | 30406 ft | 385 kts | 304° |
| 2026-05-05 12:31 | 56.56377 | 35.71561 | 30689 ft | 386 kts | 304° |
| 2026-05-05 12:31 | 56.58080 | 35.67842 | 30951 ft | 388 kts | 304° |
| 2026-05-05 12:31 | 56.59817 | 35.64043 | 31180 ft | 390 kts | 304° |
| 2026-05-05 12:31 | 56.61535 | 35.60272 | 31410 ft | 391 kts | 304° |
| 2026-05-05 12:32 | 56.63266 | 35.56473 | 31628 ft | 393 kts | 304° |
| 2026-05-05 12:32 | 56.65011 | 35.52640 | 31820 ft | 396 kts | 304° |
| 2026-05-05 12:32 | 56.68493 | 35.44974 | 31859 ft | 396 kts | 304° |
| 2026-05-05 12:33 | 56.71981 | 35.37268 | 31862 ft | 396 kts | 304° |
| 2026-05-05 12:33 | 56.75460 | 35.29562 | 31861 ft | 394 kts | 303° |
| 2026-05-05 12:34 | 56.78940 | 35.21828 | 31856 ft | 394 kts | 303° |
| 2026-05-05 12:34 | 56.82391 | 35.14126 | 31850 ft | 394 kts | 303° |
| 2026-05-05 12:35 | 56.85844 | 35.06398 | 31845 ft | 393 kts | 304° |
| 2026-05-05 12:35 | 56.89515 | 34.98996 | 31844 ft | 398 kts | 309° |
| 2026-05-05 12:36 | 56.93645 | 34.92172 | 31844 ft | 402 kts | 314° |
| 2026-05-05 12:36 | 56.98143 | 34.86126 | 31844 ft | 407 kts | 319° |
| 2026-05-05 12:37 | 57.02873 | 34.80433 | 31841 ft | 407 kts | 320° |
| 2026-05-05 12:37 | 57.07605 | 34.74755 | 31832 ft | 409 kts | 320° |
| 2026-05-05 12:38 | 57.12358 | 34.69041 | 31830 ft | 410 kts | 320° |
| 2026-05-05 12:38 | 57.17121 | 34.63290 | 31834 ft | 411 kts | 320° |
| 2026-05-05 12:39 | 57.21884 | 34.57520 | 31835 ft | 412 kts | 320° |
| 2026-05-05 12:39 | 57.26671 | 34.51707 | 31830 ft | 413 kts | 320° |
| 2026-05-05 12:40 | 57.31451 | 34.45879 | 31833 ft | 413 kts | 321° |
| 2026-05-05 12:40 | 57.36205 | 34.40063 | 31833 ft | 414 kts | 321° |
| 2026-05-05 12:41 | 57.41001 | 34.34178 | 31822 ft | 416 kts | 320° |
| 2026-05-05 12:41 | 57.45826 | 34.28246 | 31840 ft | 416 kts | 320° |
| 2026-05-05 12:42 | 57.50630 | 34.22317 | 31826 ft | 416 kts | 320° |
| 2026-05-05 12:42 | 57.55428 | 34.16368 | 31822 ft | 418 kts | 321° |
| 2026-05-05 12:43 | 57.60256 | 34.10376 | 31821 ft | 417 kts | 321° |
| 2026-05-05 12:43 | 57.65071 | 34.04373 | 31821 ft | 418 kts | 321° |
| 2026-05-05 12:44 | 57.69862 | 33.98380 | 31819 ft | 419 kts | 321° |
| 2026-05-05 12:44 | 57.74701 | 33.92312 | 31814 ft | 420 kts | 321° |
| 2026-05-05 12:45 | 57.79533 | 33.86233 | 31807 ft | 419 kts | 321° |
| 2026-05-05 12:45 | 57.84356 | 33.80136 | 31808 ft | 421 kts | 321° |
| 2026-05-05 12:46 | 57.89061 | 33.73709 | 31804 ft | 420 kts | 317° |
| 2026-05-05 12:46 | 57.93594 | 33.66848 | 31806 ft | 420 kts | 317° |
| 2026-05-05 12:47 | 57.98130 | 33.59931 | 31803 ft | 421 kts | 317° |
| 2026-05-05 12:47 | 58.02641 | 33.53043 | 31804 ft | 421 kts | 317° |
| 2026-05-05 12:48 | 58.07167 | 33.46115 | 31801 ft | 421 kts | 317° |
| 2026-05-05 12:48 | 58.11706 | 33.39146 | 31798 ft | 421 kts | 317° |
| 2026-05-05 12:49 | 58.16213 | 33.32196 | 31797 ft | 420 kts | 316° |
| 2026-05-05 12:49 | 58.20715 | 33.25232 | 31801 ft | 419 kts | 316° |
| 2026-05-05 12:50 | 58.25218 | 33.18254 | 31788 ft | 418 kts | 316° |
| 2026-05-05 12:50 | 58.27454 | 33.14780 | 31528 ft | 413 kts | 316° |
| 2026-05-05 12:50 | 58.29678 | 33.11321 | 30901 ft | 413 kts | 316° |
| 2026-05-05 12:51 | 58.31870 | 33.07903 | 30267 ft | 411 kts | 316° |
| 2026-05-05 12:51 | 58.34048 | 33.04501 | 29682 ft | 407 kts | 316° |
| 2026-05-05 12:51 | 58.36206 | 33.01127 | 29163 ft | 402 kts | 316° |
| 2026-05-05 12:51 | 58.38373 | 32.97730 | 28610 ft | 398 kts | 316° |
| 2026-05-05 12:52 | 58.40471 | 32.94434 | 28199 ft | 394 kts | 315° |
| 2026-05-05 12:52 | 58.42582 | 32.91111 | 27797 ft | 392 kts | 315° |
| 2026-05-05 12:52 | 58.44667 | 32.87827 | 27399 ft | 390 kts | 315° |
| 2026-05-05 12:52 | 58.46734 | 32.84565 | 27000 ft | 388 kts | 315° |
| 2026-05-05 12:53 | 58.48801 | 32.81302 | 26606 ft | 386 kts | 315° |
| 2026-05-05 12:53 | 58.50863 | 32.78040 | 26204 ft | 384 kts | 315° |
| 2026-05-05 12:53 | 58.52889 | 32.74828 | 25811 ft | 381 kts | 315° |
| 2026-05-05 12:53 | 58.54906 | 32.71630 | 25421 ft | 379 kts | 315° |
| 2026-05-05 12:54 | 58.58928 | 32.65230 | 24606 ft | 373 kts | 315° |
| 2026-05-05 12:54 | 58.60914 | 32.62064 | 24202 ft | 371 kts | 315° |
| 2026-05-05 12:54 | 58.62896 | 32.58899 | 23800 ft | 368 kts | 315° |
| 2026-05-05 12:55 | 58.64841 | 32.55789 | 23405 ft | 366 kts | 315° |
| 2026-05-05 12:55 | 58.66795 | 32.52658 | 23016 ft | 364 kts | 315° |
| 2026-05-05 12:55 | 58.68719 | 32.49571 | 22622 ft | 362 kts | 315° |
| 2026-05-05 12:55 | 58.70631 | 32.46498 | 22227 ft | 359 kts | 315° |
| 2026-05-05 12:56 | 58.72526 | 32.43447 | 21835 ft | 357 kts | 314° |
| 2026-05-05 12:56 | 58.74430 | 32.40378 | 21442 ft | 355 kts | 315° |
| 2026-05-05 12:56 | 58.76290 | 32.37378 | 21054 ft | 352 kts | 314° |
| 2026-05-05 12:56 | 58.78165 | 32.34347 | 20659 ft | 350 kts | 314° |
| 2026-05-05 12:57 | 58.80026 | 32.31335 | 20267 ft | 347 kts | 314° |
| 2026-05-05 12:57 | 58.81855 | 32.28370 | 19880 ft | 346 kts | 313° |
| 2026-05-05 12:57 | 58.83701 | 32.25375 | 19487 ft | 344 kts | 313° |
| 2026-05-05 12:57 | 58.85498 | 32.22454 | 19103 ft | 341 kts | 313° |
| 2026-05-05 12:58 | 58.87310 | 32.19505 | 18715 ft | 339 kts | 313° |
| 2026-05-05 12:58 | 58.89105 | 32.16579 | 18327 ft | 336 kts | 313° |
| 2026-05-05 12:58 | 58.90863 | 32.13710 | 17948 ft | 334 kts | 313° |
| 2026-05-05 12:58 | 58.92628 | 32.10822 | 17567 ft | 332 kts | 313° |
| 2026-05-05 12:59 | 58.94372 | 32.07966 | 17191 ft | 330 kts | 313° |
| 2026-05-05 12:59 | 58.96124 | 32.05095 | 16813 ft | 328 kts | 313° |
| 2026-05-05 12:59 | 58.97855 | 32.02253 | 16435 ft | 326 kts | 313° |
| 2026-05-05 13:00 | 59.01266 | 31.96640 | 15695 ft | 322 kts | 313° |
| 2026-05-05 13:00 | 59.02958 | 31.93851 | 15320 ft | 320 kts | 313° |
| 2026-05-05 13:01 | 59.07972 | 31.85564 | 14191 ft | 314 kts | 313° |
| 2026-05-05 13:01 | 59.09624 | 31.82825 | 13818 ft | 312 kts | 313° |
| 2026-05-05 13:01 | 59.11222 | 31.80031 | 13444 ft | 308 kts | 310° |
| 2026-05-05 13:01 | 59.12761 | 31.77147 | 13091 ft | 307 kts | 309° |
| 2026-05-05 13:02 | 59.14275 | 31.74280 | 12780 ft | 305 kts | 309° |
| 2026-05-05 13:02 | 59.15799 | 31.71385 | 12483 ft | 304 kts | 309° |
| 2026-05-05 13:02 | 59.17297 | 31.68540 | 12186 ft | 303 kts | 309° |
| 2026-05-05 13:02 | 59.18794 | 31.65695 | 11886 ft | 302 kts | 309° |
| 2026-05-05 13:03 | 59.20303 | 31.62824 | 11588 ft | 302 kts | 309° |
| 2026-05-05 13:03 | 59.21790 | 31.59993 | 11289 ft | 301 kts | 310° |
| 2026-05-05 13:03 | 59.23277 | 31.57157 | 10999 ft | 300 kts | 310° |
| 2026-05-05 13:03 | 59.24756 | 31.54335 | 10703 ft | 299 kts | 310° |
| 2026-05-05 13:04 | 59.26244 | 31.51493 | 10398 ft | 296 kts | 310° |
| 2026-05-05 13:04 | 59.27685 | 31.48740 | 10100 ft | 289 kts | 310° |
| 2026-05-05 13:04 | 59.29109 | 31.46014 | 9800 ft | 282 kts | 310° |
| 2026-05-05 13:04 | 59.30487 | 31.43373 | 9500 ft | 277 kts | 310° |
| 2026-05-05 13:05 | 59.31839 | 31.40778 | 9191 ft | 271 kts | 310° |
| 2026-05-05 13:05 | 59.33167 | 31.38219 | 8882 ft | 267 kts | 310° |
| 2026-05-05 13:05 | 59.34479 | 31.35687 | 8584 ft | 266 kts | 310° |
| 2026-05-05 13:05 | 59.35808 | 31.33118 | 8291 ft | 266 kts | 309° |
| 2026-05-05 13:06 | 59.37112 | 31.30598 | 7992 ft | 266 kts | 309° |
| 2026-05-05 13:06 | 59.38427 | 31.28055 | 7690 ft | 265 kts | 309° |
| 2026-05-05 13:06 | 59.39732 | 31.25529 | 7397 ft | 265 kts | 310° |
| 2026-05-05 13:06 | 59.41047 | 31.22981 | 7149 ft | 265 kts | 310° |
| 2026-05-05 13:07 | 59.42353 | 31.20445 | 6892 ft | 265 kts | 310° |
| 2026-05-05 13:07 | 59.43647 | 31.17932 | 6647 ft | 265 kts | 310° |
| 2026-05-05 13:07 | 59.44955 | 31.15389 | 6393 ft | 265 kts | 310° |
| 2026-05-05 13:07 | 59.46266 | 31.12837 | 6155 ft | 264 kts | 310° |
| 2026-05-05 13:08 | 59.47554 | 31.10330 | 5909 ft | 263 kts | 310° |
| 2026-05-05 13:08 | 59.48843 | 31.07816 | 5660 ft | 261 kts | 310° |
| 2026-05-05 13:08 | 59.50126 | 31.05310 | 5411 ft | 260 kts | 310° |
| 2026-05-05 13:08 | 59.51396 | 31.02814 | 5162 ft | 258 kts | 309° |
| 2026-05-05 13:09 | 59.52611 | 31.00164 | 4908 ft | 256 kts | 306° |
| 2026-05-05 13:09 | 59.53759 | 30.97548 | 4666 ft | 254 kts | 306° |
| 2026-05-05 13:09 | 59.54903 | 30.94931 | 4422 ft | 253 kts | 306° |
| 2026-05-05 13:09 | 59.56051 | 30.92298 | 4173 ft | 252 kts | 306° |
| 2026-05-05 13:10 | 59.57186 | 30.89695 | 3918 ft | 251 kts | 306° |
| 2026-05-05 13:10 | 59.58311 | 30.87110 | 3670 ft | 250 kts | 306° |
| 2026-05-05 13:10 | 59.59443 | 30.84513 | 3428 ft | 249 kts | 306° |
| 2026-05-05 13:10 | 59.60566 | 30.81933 | 3171 ft | 247 kts | 306° |
| 2026-05-05 13:11 | 59.61682 | 30.79361 | 2922 ft | 246 kts | 306° |
| 2026-05-05 13:11 | 59.62790 | 30.76808 | 2680 ft | 245 kts | 307° |
| 2026-05-05 13:11 | 59.63890 | 30.74271 | 2508 ft | 243 kts | 307° |
| 2026-05-05 13:11 | 59.64965 | 30.71797 | 2499 ft | 229 kts | 306° |
| 2026-05-05 13:12 | 59.65974 | 30.69528 | 2486 ft | 216 kts | 310° |
| 2026-05-05 13:12 | 59.67127 | 30.67606 | 2493 ft | 217 kts | 320° |
| 2026-05-05 13:12 | 59.68420 | 30.66112 | 2492 ft | 219 kts | 327° |
| 2026-05-05 13:12 | 59.69780 | 30.64743 | 2494 ft | 220 kts | 328° |
| 2026-05-05 13:13 | 59.71155 | 30.63388 | 2496 ft | 221 kts | 328° |
| 2026-05-05 13:13 | 59.72523 | 30.62038 | 2508 ft | 221 kts | 328° |
| 2026-05-05 13:13 | 59.73895 | 30.60678 | 2502 ft | 220 kts | 327° |
| 2026-05-05 13:13 | 59.75223 | 30.59220 | 2490 ft | 215 kts | 314° |
| 2026-05-05 13:14 | 59.76054 | 30.56934 | 2499 ft | 198 kts | 290° |
| 2026-05-05 13:14 | 59.76527 | 30.54454 | 2466 ft | 184 kts | 286° |
| 2026-05-05 13:14 | 59.76901 | 30.52146 | 2365 ft | 172 kts | 284° |
| 2026-05-05 13:14 | 59.77236 | 30.49903 | 2113 ft | 163 kts | 284° |
| 2026-05-05 13:15 | 59.77535 | 30.47857 | 1866 ft | 150 kts | 284° |
| 2026-05-05 13:15 | 59.77810 | 30.45977 | 1663 ft | 136 kts | 282° |
| 2026-05-05 13:15 | 59.78060 | 30.44252 | 1473 ft | 125 kts | 284° |
| 2026-05-05 13:15 | 59.78297 | 30.42618 | 1310 ft | 122 kts | 285° |
| 2026-05-05 13:16 | 59.78531 | 30.41019 | 1159 ft | 121 kts | 286° |
| 2026-05-05 13:16 | 59.78772 | 30.39396 | 1013 ft | 122 kts | 282° |
| 2026-05-05 13:16 | 59.79005 | 30.37798 | 862 ft | 122 kts | 287° |
| 2026-05-05 13:16 | 59.79245 | 30.36182 | 693 ft | 121 kts | 284° |
| 2026-05-05 13:17 | 59.79483 | 30.34570 | 536 ft | 121 kts | 286° |
| 2026-05-05 13:17 | 59.79723 | 30.32968 | 367 ft | 121 kts | 284° |
| 2026-05-05 13:17 | 59.79958 | 30.31364 | 204 ft | 121 kts | 288° |
| 2026-05-05 13:17 | 59.80200 | 30.29762 | 73 ft | 118 kts | 283° |
| 2026-05-05 13:18 | 59.80387 | 30.28501 | 71 ft | 71 kts | 287° |
| 2026-05-05 13:18 | 59.80448 | 30.27968 | 72 ft | 23 kts | 269° |
| 2026-05-05 13:18 | 59.80416 | 30.27658 | 73 ft | 22 kts | 251° |
| 2026-05-05 13:18 | 59.80405 | 30.27590 | 73 ft | 0 kts | 251° |
| 2026-05-05 13:19 | 59.80402 | 30.27572 | 73 ft | 2 kts | 251° |
| 2026-05-05 13:19 | 59.80394 | 30.27523 | 73 ft | 4 kts | 252° |
| 2026-05-05 13:20 | 59.80382 | 30.27452 | 73 ft | 6 kts | 251° |
| 2026-05-05 13:20 | 59.80367 | 30.27359 | 74 ft | 7 kts | 252° |
| 2026-05-05 13:20 | 59.80351 | 30.27254 | 75 ft | 8 kts | 258° |
| 2026-05-05 13:20 | 59.80354 | 30.27143 | 76 ft | 9 kts | 283° |
| 2026-05-05 13:21 | 59.80375 | 30.27000 | 75 ft | 12 kts | 287° |
| 2026-05-05 13:21 | 59.80359 | 30.26857 | 76 ft | 11 kts | 209° |
| 2026-05-05 13:21 | 59.80289 | 30.26813 | 78 ft | 10 kts | 196° |
| 2026-05-05 13:21 | 59.80222 | 30.26773 | 79 ft | 10 kts | 197° |
| 2026-05-05 13:22 | 59.80152 | 30.26731 | 79 ft | 10 kts | 195° |
| 2026-05-05 13:22 | 59.80077 | 30.26689 | 78 ft | 11 kts | 197° |
| 2026-05-05 13:22 | 59.79997 | 30.26640 | 79 ft | 12 kts | 195° |
| 2026-05-05 13:22 | 59.79915 | 30.26592 | 79 ft | 12 kts | 197° |
| 2026-05-05 13:23 | 59.79884 | 30.26627 | 79 ft | 6 kts | 114° |
| 2026-05-05 13:23 | 59.79868 | 30.26717 | 80 ft | 7 kts | 107° |
| 2026-05-05 13:23 | 59.79865 | 30.26737 | 80 ft | 0 kts | 107° |